Latest Weather Observations for Croker Island Airport

IDD60801

Issued at 10:11 pm CST Tuesday 24 May 2022 (issued every 10 minutes, with the page automatically refreshed every 10 minutes)

About weather observations | Map of weather stations | Latest weather observations for NT | Other Formats
Station Details ID: 014308 Name: CROKER ISLAND AIRPORT Lat: -11.16 Lon: 132.48 Height: 9.2 m
Data from the previous 72 hours. | See also: Recent months at Croker Island Airport
Date/Time
CST
Temp
°C
App
Temp
°C
Dew
Point
°C
Rel
Hum
%
Delta-T
°C
Wind Press
QNH
hPa
Press
MSL
hPa
Rain since
9am
mm
Dir  Spd
km/h
Gust
km/h
Spd
kts
Gust
kts
24/10:00pm 25.0 28.8 21.7 82 2.2 ENE 4 4 2 2 1013.8 1013.7 0.0
24/09:30pm 25.3 29.2 21.8 81 2.3 ENE 4 6 2 3 1013.6 1013.5 0.0
24/09:00pm 25.3 28.8 21.8 81 2.3 ENE 6 6 3 3 1013.6 1013.5 0.0
24/08:30pm 25.6 29.5 21.9 80 2.5 ENE 4 6 2 3 1013.2 1013.1 0.0
24/08:00pm 25.9 30.3 21.3 76 3.0 CALM 0 4 0 2 1012.9 1012.8 0.0
24/07:30pm 26.9 30.5 22.1 75 3.2 ENE 6 7 3 4 1012.5 1012.4 0.0
24/07:00pm 27.3 30.9 22.0 73 3.6 ENE 6 7 3 4 1012.2 1012.1 0.0
24/06:30pm 28.2 32.3 22.2 70 4.1 ENE 4 6 2 3 1011.7 1011.6 0.0
24/06:00pm 29.4 32.9 22.1 65 4.9 ENE 7 15 4 8 1011.1 1011.0 0.0
24/05:30pm 30.1 32.7 22.0 62 5.5 ENE 11 17 6 9 1011.0 1010.9 0.0
24/05:00pm 30.8 33.0 21.9 59 6.0 ENE 13 20 7 11 1010.6 1010.5 0.0
24/04:30pm 31.3 33.5 22.6 60 6.0 E 15 22 8 12 1010.5 1010.4 0.0
24/04:00pm 32.1 35.1 23.3 59 6.1 ENE 13 20 7 11 1010.3 1010.2 0.0
24/03:30pm 31.8 33.8 22.2 56 6.5 E 15 22 8 12 1010.2 1010.1 0.0
24/03:00pm 31.8 34.4 23.3 60 5.9 ENE 15 20 8 11 1010.2 1010.1 0.0
24/02:30pm 31.9 34.4 23.2 60 6.0 ENE 15 24 8 13 1010.5 1010.4 0.0
24/02:00pm 32.0 34.7 23.5 60 5.9 E 15 22 8 12 1010.8 1010.7 0.0
24/01:30pm 31.8 34.4 23.3 60 5.9 ENE 15 22 8 12 1011.2 1011.1 0.0
24/01:00pm 32.0 34.2 23.3 60 6.0 E 17 24 9 13 1011.7 1011.6 0.0
24/12:30pm 32.3 34.1 23.3 59 6.2 E 19 28 10 15 1012.1 1012.0 0.0
24/12:00pm 31.3 33.4 23.7 64 5.3 E 19 26 10 14 1012.6 1012.5 0.0
24/11:30am 31.2 33.6 23.6 64 5.3 E 17 26 9 14 1012.7 1012.6 0.0
24/11:00am 30.7 32.6 23.4 65 5.0 ESE 19 28 10 15 1013.1 1013.0 0.0
24/10:30am 30.1 31.6 23.0 65 4.9 ESE 20 28 11 15 1013.0 1012.9 0.0
24/10:00am 30.1 31.8 23.0 65 4.9 E 19 28 10 15 1013.0 1012.9 0.0
24/09:30am 29.4 31.1 23.1 69 4.3 ESE 19 28 10 15 1012.9 1012.8 0.0
24/09:00am 29.2 31.9 23.4 71 4.0 ESE 15 20 8 11 1012.8 1012.7 0.0
24/08:30am 28.1 30.6 23.2 74 3.4 ESE 15 24 8 13 1012.7 1012.6 0.0
24/08:00am 27.4 30.8 23.4 79 2.7 ESE 11 17 6 9 1012.5 1012.4 0.0
24/07:30am 26.1 29.8 23.2 84 2.0 ESE 9 13 5 7 1012.2 1012.1 0.0
24/07:00am 25.8 29.4 23.1 85 1.8 ESE 9 17 5 9 1011.8 1011.7 0.0
24/06:30am 25.7 29.2 22.8 84 2.0 ESE 9 15 5 8 1011.6 1011.5 0.0
24/06:00am 25.9 29.4 22.8 83 2.1 ESE 9 15 5 8 1011.4 1011.3 0.0
24/05:30am 26.3 29.8 22.8 81 2.4 SE 9 13 5 7 1011.2 1011.1 0.0
24/05:00am 26.9 29.4 22.5 77 3.0 ESE 13 20 7 11 1011.1 1011.0 0.0
24/04:30am 27.1 29.0 22.7 77 3.0 ESE 17 24 9 13 1011.1 1011.0 0.0
24/04:00am 27.2 29.1 22.8 77 3.0 ESE 17 28 9 15 1010.9 1010.8 0.0
24/03:30am 27.4 28.8 22.6 75 3.3 ESE 19 28 10 15 1011.0 1010.9 0.0
24/03:00am 27.6 28.4 22.5 74 3.5 E 22 32 12 17 1010.9 1010.8 0.0
24/02:30am 27.9 30.0 23.1 75 3.3 E 17 24 9 13 1010.8 1010.7 0.0
24/02:00am 27.8 31.9 24.0 80 2.6 ENE 9 15 5 8 1010.9 1010.8 0.0
24/01:30am 27.6 31.5 23.6 79 2.7 E 9 15 5 8 1011.1 1011.0 0.0
24/01:00am 27.2 31.5 23.7 81 2.4 ENE 7 11 4 6 1011.3 1011.2 0.0
24/12:30am 26.9 31.2 23.6 82 2.3 ENE 7 13 4 7 1011.6 1011.5 0.0
24/12:00am 26.4 30.4 23.1 82 2.2 ENE 7 9 4 5 1011.8 1011.7 0.0
 
Date/Time
CST
Temp
°C
App
Temp
°C
Dew
Point
°C
Rel
Hum
%
Delta-T
°C
Wind Press
QNH
hPa
Press
MSL
hPa
Rain since
9am
mm
Dir  Spd
km/h
Gust
km/h
Spd
kts
Gust
kts
23/11:30pm 26.0 30.0 22.7 82 2.2 ENE 6 9 3 5 1011.9 1011.8 0.0
23/11:00pm 25.9 29.7 22.4 81 2.4 ENE 6 7 3 4 1011.9 1011.8 0.0
23/10:30pm 26.1 29.9 22.4 80 2.5 ENE 6 7 3 4 1012.0 1011.9 0.0
23/10:00pm 26.3 30.2 22.6 80 2.5 ENE 6 7 3 4 1012.1 1012.0 0.0
23/09:30pm 26.4 30.1 22.5 79 2.6 ENE 7 9 4 5 1012.1 1012.0 0.0
23/09:00pm 27.0 30.7 22.6 77 3.0 ENE 7 9 4 5 1012.0 1011.9 0.0
23/08:30pm 27.0 30.6 22.4 76 3.1 ENE 7 11 4 6 1011.9 1011.8 0.0
23/08:00pm 27.3 30.9 22.3 74 3.4 ENE 7 11 4 6 1011.3 1011.2 0.0
23/07:30pm 27.4 30.4 21.9 72 3.7 E 9 13 5 7 1010.9 1010.8 0.0
23/07:00pm 27.5 30.3 21.5 70 4.0 ENE 9 15 5 8 1010.5 1010.4 0.0
23/06:30pm 28.1 30.9 21.6 68 4.4 ENE 9 17 5 9 1010.3 1010.2 0.0
23/06:00pm 29.0 30.2 21.5 64 5.0 E 17 28 9 15 1010.0 1009.9 0.0
23/05:30pm 30.0 31.3 21.7 61 5.6 E 17 30 9 16 1009.7 1009.6 0.0
23/05:00pm 30.7 31.0 20.3 53 6.9 E 19 32 10 17 1009.6 1009.5 0.0
23/04:30pm 31.5 31.7 20.1 50 7.6 E 19 32 10 17 1009.3 1009.2 0.0
23/04:00pm 31.3 30.9 19.3 49 7.8 E 20 35 11 19 1009.2 1009.1 0.0
23/03:30pm 32.2 31.5 19.5 47 8.4 E 22 32 12 17 1009.2 1009.1 0.0
23/03:00pm 32.4 30.7 18.2 42 9.2 E 24 37 13 20 1009.5 1009.4 0.0
23/02:30pm 32.3 30.9 18.8 44 8.8 E 24 37 13 20 1009.7 1009.6 0.0
23/02:00pm 32.5 30.7 17.9 41 9.4 ESE 24 35 13 19 1009.9 1009.8 0.0
23/01:30pm 32.5 30.7 17.9 41 9.4 E 24 35 13 19 1010.4 1010.3 0.0
23/01:00pm 32.5 30.3 16.8 39 9.9 ESE 24 39 13 21 1010.7 1010.6 0.0
23/12:30pm 32.6 30.5 17.2 39 9.8 ESE 24 39 13 21 1011.2 1011.1 0.0
23/12:00pm 32.3 32.0 19.5 46 8.4 ESE 20 35 11 19 1011.6 1011.5 0.0
23/11:30am 31.6 31.0 18.9 47 8.3 ESE 20 35 11 19 1012.0 1011.9 0.0
23/11:00am 31.2 30.7 19.9 51 7.4 E 22 33 12 18 1012.4 1012.3 0.0
23/10:30am 30.7 30.5 20.6 54 6.7 ESE 22 32 12 17 1012.6 1012.5 0.0
23/10:00am 30.8 31.2 20.7 55 6.7 E 19 28 10 15 1012.7 1012.6 0.0
23/09:30am 30.2 31.2 20.2 55 6.6 ESE 15 26 8 14 1012.6 1012.5 0.0
23/09:00am 29.3 29.9 20.2 58 6.0 ESE 17 24 9 13 1012.7 1012.6 0.0
23/08:30am 28.2 30.0 21.2 65 4.7 ESE 13 20 7 11 1012.5 1012.4 0.0
23/08:00am 26.6 30.4 22.4 78 2.8 SE 6 9 3 5 1012.3 1012.2 0.0
23/07:30am 25.1 28.7 22.0 83 2.1 SE 6 6 3 3 1012.1 1012.0 0.0
23/07:00am 25.3 28.3 22.0 82 2.2 SE 9 15 5 8 1011.8 1011.7 0.0
23/06:30am 25.5 28.6 22.2 82 2.2 SE 9 17 5 9 1011.6 1011.5 0.0
23/06:00am 25.9 29.1 22.4 81 2.4 ESE 9 15 5 8 1011.2 1011.1 0.0
23/05:30am 25.9 29.0 22.2 80 2.5 SE 9 15 5 8 1010.9 1010.8 0.0
23/05:00am 26.1 28.7 22.0 78 2.7 ESE 11 17 6 9 1010.6 1010.5 0.0
23/04:30am 26.4 28.1 21.6 75 3.2 ESE 15 24 8 13 1010.5 1010.4 0.0
23/04:00am 26.1 28.6 21.7 77 2.9 ESE 11 17 6 9 1010.2 1010.1 0.0
23/03:30am 26.3 28.8 22.4 79 2.6 E 13 19 7 10 1010.1 1010.0 0.0
23/03:00am 25.3 29.4 23.0 87 1.6 ENE 6 7 3 4 1010.0 1009.9 0.0
23/02:30am 25.2 29.3 22.9 87 1.6 ENE 6 7 3 4 1010.1 1010.0 0.0
23/02:00am 24.6 28.2 22.1 86 1.7 NE 6 7 3 4 1010.3 1010.2 0.0
23/01:30am 24.6 28.1 21.9 85 1.8 NE 6 7 3 4 1010.5 1010.4 0.0
23/01:00am 24.8 28.2 21.7 83 2.1 NE 6 6 3 3 1010.6 1010.5 0.0
23/12:30am 25.5 29.2 22.2 82 2.2 NE 6 7 3 4 1010.9 1010.8 0.0
23/12:00am 25.8 29.1 22.5 82 2.2 NE 9 11 5 6 1010.9 1010.8 0.0
 
Date/Time
CST
Temp
°C
App
Temp
°C
Dew
Point
°C
Rel
Hum
%
Delta-T
°C
Wind Press
QNH
hPa
Press
MSL
hPa
Rain since
9am
mm
Dir  Spd
km/h
Gust
km/h
Spd
kts
Gust
kts
22/11:30pm 25.5 29.0 22.2 82 2.2 NE 7 9 4 5 1010.9 1010.8 0.0
22/11:00pm 25.7 29.2 21.8 79 2.6 NE 6 7 3 4 1011.0 1010.9 0.0
22/10:30pm 26.0 29.3 21.9 78 2.7 NE 7 9 4 5 1011.0 1010.9 0.0
22/10:00pm 25.4 28.7 21.5 79 2.6 ENE 6 9 3 5 1011.2 1011.1 0.0
22/09:30pm 25.3 28.6 21.4 79 2.6 ENE 6 7 3 4 1011.2 1011.1 0.0
22/09:00pm 25.4 28.8 20.9 76 3.0 ENE 4 6 2 3 1010.9 1010.8 0.0
22/08:30pm 25.9 29.0 21.1 75 3.2 ENE 6 9 3 5 1010.6 1010.5 0.0
22/08:00pm 26.3 29.3 21.3 74 3.3 ENE 7 11 4 6 1010.4 1010.3 0.0
22/07:30pm 26.5 29.4 21.0 72 3.6 ENE 7 11 4 6 1010.1 1010.0 0.0
22/07:00pm 26.8 29.6 20.9 70 3.9 ENE 7 11 4 6 1010.0 1009.9 0.0
22/06:30pm 27.4 30.3 20.7 67 4.4 E 6 9 3 5 1009.8 1009.7 0.0
22/06:00pm 28.8 31.0 20.5 61 5.5 ENE 9 13 5 7 1009.5 1009.4 0.0
22/05:30pm 29.8 31.5 20.9 59 5.9 E 13 20 7 11 1009.3 1009.2 0.0
22/05:00pm 30.3 31.6 20.8 56 6.3 ENE 15 22 8 12 1009.1 1009.0 0.0
22/04:30pm 30.7 31.7 20.3 53 6.9 ENE 15 22 8 12 1008.8 1008.7 0.0
22/04:00pm 31.4 31.9 20.0 50 7.5 ENE 17 26 9 14 1008.9 1008.8 0.0
22/03:30pm 31.8 32.2 19.1 47 8.3 ENE 15 26 8 14 1009.0 1008.9 0.0
22/03:00pm 32.1 31.3 17.9 42 9.1 E 19 26 10 14 1009.2 1009.1 0.0
22/02:30pm 32.3 31.1 17.0 40 9.7 E 19 30 10 16 1009.4 1009.3 0.0
22/02:00pm 32.4 30.9 17.8 41 9.4 E 22 33 12 18 1009.9 1009.8 0.0
22/01:30pm 31.7 30.5 18.3 45 8.7 ESE 22 33 12 18 1010.2 1010.1 0.0
22/01:00pm 31.9 29.9 17.4 42 9.2 E 24 33 13 18 1010.6 1010.5 0.0
22/12:30pm 32.2 31.3 19.1 45 8.6 E 22 33 12 18 1010.9 1010.8 0.0
22/12:00pm 32.0 32.1 19.9 48 8.0 ESE 19 28 10 15 1011.3 1011.2 0.0
22/11:30am 31.4 31.4 19.7 49 7.7 E 19 28 10 15 1011.7 1011.6 0.0
22/11:00am 30.7 30.2 19.1 50 7.6 E 20 33 11 18 1012.0 1011.9 0.0
22/10:30am 31.0 31.3 20.3 53 7.1 ESE 19 28 10 15 1012.2 1012.1 0.0
22/10:00am 29.9 29.8 19.9 55 6.6 ESE 20 28 11 15 1012.2 1012.1 0.0
22/09:30am 29.6 29.9 20.5 58 6.0 ESE 19 28 10 15 1012.1 1012.0 0.0
22/09:00am 28.9 29.9 21.1 62 5.2 ESE 17 26 9 14 1012.0 1011.9 0.0
22/08:30am 28.3 29.8 21.3 65 4.7 ESE 15 22 8 12 1011.7 1011.6 0.0
22/08:00am 27.2 29.6 21.5 71 3.8 ESE 11 17 6 9 1011.5 1011.4 0.0
22/07:30am 25.8 28.7 21.7 78 2.7 ESE 9 13 5 7 1011.3 1011.2 0.0
22/07:00am 25.4 28.3 21.7 80 2.5 ESE 9 15 5 8 1010.9 1010.8 0.0
22/06:30am 25.4 28.2 21.5 79 2.6 ESE 9 13 5 7 1010.8 1010.7 0.0
22/06:00am 25.7 28.4 21.4 77 2.9 ESE 9 15 5 8 1010.6 1010.5 0.0
22/05:30am 26.0 27.8 21.2 75 3.2 ESE 13 19 7 10 1010.5 1010.4 0.0
22/05:00am 26.4 28.0 21.4 74 3.3 ESE 15 24 8 13 1010.5 1010.4 0.0
22/04:30am 26.5 29.1 21.9 76 3.1 ESE 11 20 6 11 1010.4 1010.3 0.0
22/04:00am 26.7 29.0 22.1 76 3.1 ESE 13 19 7 10 1010.3 1010.2 0.0
22/03:30am 27.0 29.6 22.0 74 3.4 ESE 11 17 6 9 1010.4 1010.3 0.0
22/03:00am 27.2 28.9 21.7 72 3.7 ESE 15 22 8 12 1010.5 1010.4 0.0
22/02:30am 27.5 29.4 22.0 72 3.7 ESE 15 24 8 13 1010.6 1010.5 0.0
22/02:00am 27.7 30.2 22.4 73 3.6 ESE 13 22 7 12 1010.5 1010.4 0.0
22/01:30am 27.6 31.7 23.2 77 3.0 E 7 11 4 6 1010.7 1010.6 0.0
22/01:00am 27.5 31.1 23.1 77 3.0 E 9 15 5 8 1010.9 1010.8 0.0
22/12:30am 27.4 31.0 23.0 77 3.0 E 9 17 5 9 1011.1 1011.0 0.0
22/12:00am 27.1 30.9 22.7 77 3.0 E 7 13 4 7 1011.1 1011.0 0.0
 
Date/Time
CST
Temp
°C
App
Temp
°C
Dew
Point
°C
Rel
Hum
%
Delta-T
°C
Wind Press
QNH
hPa
Press
MSL
hPa
Rain since
9am
mm
Dir  Spd
km/h
Gust
km/h
Spd
kts
Gust
kts
21/11:30pm 27.0 30.6 23.0 79 2.7 E 9 17 5 9 1011.0 1010.9 0.0
21/11:00pm 26.7 30.5 22.8 79 2.6 ENE 7 13 4 7 1011.0 1010.9 0.0
21/10:30pm 26.5 30.2 22.6 79 2.6 ENE 7 9 4 5 1011.0 1010.9 0.0

Other formats

Comma delimited format used in spreadsheet applications
http://www.bom.gov.au/fwo/IDD60801/IDD60801.94108.axf

JavaScript Object Notation format (JSON) in row-major order
http://www.bom.gov.au/fwo/IDD60801/IDD60801.94108.json

Data quality

Most of these data are generated automatically and are frequently updated. Quality checks on data are not normally performed. It is possible for incorrect values to appear. Refer to information at About Latest Weather Observations and please check the disclaimer before using these data.